Time;durP1;ratioP1;P1;durP2;ratioP2;P2;SDS_P1;SDS_P2;PMS_P1;PMS_P2;Temp;Humidity;BMP_temperature;BMP_pressure;BME280_temperature;BME280_humidity;BME280_pressure;Samples;Min_cycle;Max_cycle;Signal;HPM_P1;HPM_P2
2022/09/13 00:00:31;;;;;;;8.20;3.17;;;16.20;99.90;;;;;;4981405;28;20385;-54
2022/09/13 00:02:57;;;;;;;7.73;3.20;;;16.20;99.90;;;;;;4983991;28;20386;-54
2022/09/13 00:05:22;;;;;;;8.65;3.78;;;16.20;99.90;;;;;;4982887;28;20773;-54
2022/09/13 00:07:48;;;;;;;7.30;3.43;;;16.20;99.90;;;;;;4981950;28;20444;-54
2022/09/13 00:10:14;;;;;;;9.88;3.78;;;16.20;99.90;;;;;;4981894;28;20389;-53
2022/09/13 00:12:39;;;;;;;7.93;3.50;;;16.20;99.90;;;;;;4981250;28;20443;-54
2022/09/13 00:15:06;;;;;;;10.00;4.07;;;16.10;99.90;;;;;;4978589;28;20392;-54
2022/09/13 00:17:31;;;;;;;9.13;3.45;;;16.10;99.90;;;;;;4982264;28;20394;-54
2022/09/13 00:19:57;;;;;;;9.53;3.80;;;16.20;99.90;;;;;;4980742;28;20443;-53
2022/09/13 00:22:22;;;;;;;9.23;3.60;;;16.20;99.90;;;;;;4981516;28;20394;-53
2022/09/13 00:24:48;;;;;;;9.10;3.58;;;16.10;99.90;;;;;;4982199;28;20877;-54
2022/09/13 00:27:13;;;;;;;9.15;3.22;;;16.20;99.90;;;;;;4982200;28;20430;-53
2022/09/13 00:29:39;;;;;;;7.50;3.33;;;16.20;99.90;;;;;;4982097;28;20395;-54
2022/09/13 00:32:05;;;;;;;8.53;3.60;;;16.30;99.90;;;;;;4981273;28;20463;-54
2022/09/13 00:34:30;;;;;;;7.57;3.05;;;16.20;99.90;;;;;;4979715;28;20534;-53
2022/09/13 00:36:56;;;;;;;8.03;3.80;;;16.10;99.90;;;;;;4982908;28;20478;-54
2022/09/13 00:39:21;;;;;;;8.40;3.93;;;16.10;99.90;;;;;;4980216;28;20443;-54
2022/09/13 00:41:47;;;;;;;8.70;3.60;;;16.10;99.90;;;;;;4981103;28;20391;-53
2022/09/13 00:44:44;;;;;;;9.55;3.33;;;16.10;99.90;;;;;;4977910;28;20909;-53
2022/09/13 00:47:14;;;;;;;8.60;3.88;;;16.10;99.90;;;;;;4982807;28;20484;-53
2022/09/13 00:49:41;;;;;;;7.30;3.42;;;16.10;99.90;;;;;;4982371;28;20811;-53
2022/09/13 00:52:12;;;;;;;8.75;3.83;;;16.10;99.90;;;;;;4980212;28;20465;-54
2022/09/13 00:54:49;;;;;;;9.13;3.40;;;16.10;99.90;;;;;;4982765;28;20418;-54
2022/09/13 00:57:17;;;;;;;9.90;4.05;;;16.10;99.90;;;;;;4990506;28;20744;-53
2022/09/13 00:59:50;;;;;;;8.40;3.60;;;16.00;99.90;;;;;;4991241;28;20494;-54
2022/09/13 01:02:15;;;;;;;11.37;3.87;;;16.00;99.90;;;;;;4990448;28;20494;-53
2022/09/13 01:04:42;;;;;;;9.82;3.42;;;16.00;99.90;;;;;;4988010;28;20487;-54
2022/09/13 01:07:13;;;;;;;9.25;3.30;;;16.00;99.90;;;;;;4979540;28;20769;-53
2022/09/13 01:09:43;;;;;;;7.53;3.42;;;16.00;99.90;;;;;;4979874;28;20380;-53
2022/09/13 01:12:31;;;;;;;9.70;3.85;;;16.10;99.90;;;;;;4980132;28;20898;-54
2022/09/13 01:14:59;;;;;;;8.93;4.00;;;16.10;99.90;;;;;;4982610;28;20384;-53
2022/09/13 01:17:28;;;;;;;9.90;4.10;;;16.10;99.90;;;;;;4982242;28;20788;-53
2022/09/13 01:19:53;;;;;;;9.15;4.35;;;16.10;99.90;;;;;;4980159;28;20406;-54
2022/09/13 01:22:19;;;;;;;9.20;3.90;;;16.00;99.90;;;;;;4978509;28;20395;-53
2022/09/13 01:24:54;;;;;;;8.40;3.92;;;16.00;99.90;;;;;;4971216;28;20389;-54
2022/09/13 01:27:58;;;;;;;7.93;3.93;;;15.80;1.00;;;;;;4970434;28;20420;-54
2022/09/13 01:30:34;;;;;;;9.30;3.75;;;15.80;1.00;;;;;;4970697;28;20388;-54
2022/09/13 01:33:18;;;;;;;10.32;3.80;;;15.80;1.00;;;;;;4984183;28;20550;-54
2022/09/13 01:36:03;;;;;;;9.45;4.25;;;15.70;1.00;;;;;;4990690;28;20394;-53
2022/09/13 01:38:51;;;;;;;8.50;3.88;;;15.70;1.00;;;;;;4990326;28;20744;-54
2022/09/13 01:41:35;;;;;;;8.10;4.03;;;15.70;1.00;;;;;;4972373;28;20772;-53
2022/09/13 01:44:23;;;;;;;8.57;3.60;;;15.70;1.00;;;;;;4972920;28;20876;-54
2022/09/13 01:46:59;;;;;;;7.80;3.72;;;15.70;1.00;;;;;;4990566;28;20458;-54
2022/09/13 01:49:56;;;;;;;10.60;4.75;;;15.60;1.00;;;;;;4989993;28;20752;-53
2022/09/13 01:52:31;;;;;;;11.48;4.30;;;15.50;1.00;;;;;;4972635;28;20417;-55
2022/09/13 01:55:08;;;;;;;11.68;4.00;;;15.60;1.00;;;;;;4990248;28;20402;-55
2022/09/13 01:58:06;;;;;;;8.10;3.70;;;15.70;1.00;;;;;;4990451;28;20387;-54
2022/09/13 02:00:40;;;;;;;9.83;4.13;;;15.50;1.00;;;;;;4990125;28;20437;-54
2022/09/13 02:03:33;;;;;;;9.38;4.00;;;15.50;1.00;;;;;;4991019;28;20394;-54
2022/09/13 02:06:04;;;;;;;13.27;4.50;;;15.50;1.00;;;;;;4990666;28;20391;-53
2022/09/13 02:08:55;;;;;;;9.80;4.20;;;15.40;1.00;;;;;;4972012;28;21092;-54
2022/09/13 02:11:22;;;;;;;10.27;4.13;;;15.50;1.00;;;;;;4989630;28;20848;-54
2022/09/13 02:13:58;;;;;;;9.50;3.95;;;15.40;1.00;;;;;;4990283;28;20391;-54
2022/09/13 02:16:32;;;;;;;10.10;4.90;;;15.40;1.00;;;;;;4989847;28;20398;-54
2022/09/13 02:19:05;;;;;;;11.40;4.77;;;15.30;1.00;;;;;;4990589;28;20840;-54
2022/09/13 02:21:38;;;;;;;8.55;4.30;;;15.30;1.00;;;;;;4989449;28;20533;-54
2022/09/13 02:24:14;;;;;;;9.55;4.50;;;15.30;1.00;;;;;;4990144;28;20769;-54
2022/09/13 02:26:44;;;;;;;9.40;4.55;;;15.30;1.00;;;;;;4990089;28;20395;-53
2022/09/13 02:29:15;;;;;;;8.68;3.80;;;15.20;1.00;;;;;;4990501;28;20414;-54
2022/09/13 02:31:57;;;;;;;8.63;3.83;;;15.20;1.00;;;;;;4994171;28;20403;-54
2022/09/13 02:34:38;;;;;;;8.70;4.38;;;15.20;1.00;;;;;;4993247;28;20407;-54
2022/09/13 02:37:06;;;;;;;11.98;4.78;;;15.20;1.00;;;;;;4993991;28;20925;-53
2022/09/13 02:39:35;;;;;;;10.03;4.10;;;15.10;1.00;;;;;;4993413;28;20402;-53
2022/09/13 02:42:15;;;;;;;8.80;3.80;;;15.10;1.00;;;;;;4993893;28;20379;-54
2022/09/13 02:44:51;;;;;;;9.00;4.32;;;15.00;1.00;;;;;;4993973;28;20383;-54
2022/09/13 02:47:38;;;;;;;10.65;4.30;;;15.10;1.00;;;;;;4985135;28;20776;-54
2022/09/13 02:50:20;;;;;;;9.32;3.92;;;15.20;1.00;;;;;;4994251;28;20387;-54
2022/09/13 02:53:19;;;;;;;8.88;4.28;;;15.10;1.00;;;;;;4993498;28;20714;-54
2022/09/13 02:56:12;;;;;;;11.30;4.70;;;15.10;1.00;;;;;;4993591;28;20390;-54
2022/09/13 02:58:44;;;;;;;8.48;3.90;;;15.10;1.00;;;;;;4993429;28;20403;-53
2022/09/13 03:01:10;;;;;;;10.52;4.43;;;15.10;1.00;;;;;;4993312;28;20387;-53
2022/09/13 03:03:35;;;;;;;9.53;3.77;;;15.10;1.00;;;;;;4992796;28;20469;-53
2022/09/13 03:06:01;;;;;;;7.90;3.70;;;15.00;1.00;;;;;;4993612;28;20422;-53
2022/09/13 03:08:28;;;;;;;9.20;4.13;;;15.00;1.00;;;;;;4992461;28;20804;-54
2022/09/13 03:11:27;;;;;;;9.13;4.20;;;14.90;1.00;;;;;;4992840;28;20386;-53
2022/09/13 03:14:05;;;;;;;8.90;4.05;;;14.90;1.00;;;;;;4993784;28;20430;-54
2022/09/13 03:17:04;;;;;;;8.40;3.60;;;14.90;1.00;;;;;;4992414;28;20594;-53
2022/09/13 03:19:48;;;;;;;7.90;3.60;;;14.90;1.00;;;;;;4992794;28;20379;-54
2022/09/13 03:22:39;;;;;;;9.35;4.22;;;14.90;1.00;;;;;;4992739;28;20844;-54
2022/09/13 03:25:25;;;;;;;10.18;4.15;;;14.90;1.00;;;;;;4993556;28;20438;-53
2022/09/13 03:28:10;;;;;;;9.75;4.20;;;14.90;1.00;;;;;;4993320;28;20420;-53
2022/09/13 03:30:39;;;;;;;8.45;3.60;;;15.00;1.00;;;;;;4987931;28;20392;-54
2022/09/13 03:33:05;;;;;;;9.10;4.15;;;15.00;1.00;;;;;;4988328;28;20416;-54
2022/09/13 03:35:42;;;;;;;8.70;4.30;;;14.90;1.00;;;;;;4982292;28;20399;-54
2022/09/13 03:38:13;;;;;;;9.82;4.65;;;14.90;1.00;;;;;;4981896;28;20455;-54
2022/09/13 03:40:50;;;;;;;10.00;4.10;;;14.90;1.00;;;;;;4984756;28;20388;-54
2022/09/13 03:43:34;;;;;;;13.65;4.75;;;14.90;1.00;;;;;;4992109;28;20379;-54
2022/09/13 03:46:14;;;;;;;8.90;3.90;;;14.80;1.00;;;;;;4992597;28;20375;-54
2022/09/13 03:48:41;;;;;;;9.65;4.47;;;14.70;5.30;;;;;;4987012;28;20997;-55
2022/09/13 03:51:08;;;;;;;8.70;4.18;;;14.80;3.80;;;;;;4986408;28;20480;-54
2022/09/13 03:53:40;;;;;;;11.35;4.93;;;14.80;1.00;;;;;;4982581;28;20383;-53
2022/09/13 03:56:18;;;;;;;8.50;4.10;;;14.70;12.90;;;;;;4983088;28;20381;-55
2022/09/13 03:58:45;;;;;;;11.75;4.65;;;14.70;6.80;;;;;;4983444;28;20799;-54
2022/09/13 04:01:11;;;;;;;9.00;4.10;;;14.70;5.60;;;;;;4982510;28;20383;-53
2022/09/13 04:03:37;;;;;;;8.07;3.97;;;14.80;5.90;;;;;;4983435;28;20446;-54
2022/09/13 04:06:03;;;;;;;9.00;4.10;;;14.80;1.00;;;;;;4982587;28;20419;-54
2022/09/13 04:08:30;;;;;;;11.68;4.57;;;14.70;1.00;;;;;;4980394;28;20422;-54
2022/09/13 04:10:55;;;;;;;10.13;4.70;;;14.70;1.00;;;;;;4983116;28;20465;-53
2022/09/13 04:13:21;;;;;;;8.40;4.10;;;14.60;19.50;;;;;;4982050;28;20471;-54
2022/09/13 04:15:49;;;;;;;10.20;4.20;;;14.50;26.30;;;;;;4977027;28;20406;-54
2022/09/13 04:18:14;;;;;;;8.60;4.10;;;14.50;44.70;;;;;;4972184;28;20415;-53
2022/09/13 04:20:40;;;;;;;9.18;4.47;;;14.50;49.40;;;;;;4975254;28;20889;-54
2022/09/13 04:23:06;;;;;;;9.93;3.90;;;14.60;28.20;;;;;;4992031;28;20433;-54
2022/09/13 04:25:31;;;;;;;11.10;4.90;;;14.60;17.70;;;;;;4973806;28;20463;-54
2022/09/13 04:27:58;;;;;;;10.20;4.37;;;14.60;20.20;;;;;;4972339;28;20420;-54
2022/09/13 04:30:25;;;;;;;8.60;4.25;;;14.70;23.80;;;;;;4973358;28;20889;-54
2022/09/13 04:32:51;;;;;;;11.35;4.22;;;14.70;19.20;;;;;;4972145;28;20491;-54
2022/09/13 04:35:18;;;;;;;11.13;4.53;;;14.70;25.90;;;;;;4963688;28;20380;-54
2022/09/13 04:37:44;;;;;;;8.50;4.10;;;14.60;51.00;;;;;;4974924;28;20402;-54
2022/09/13 04:40:10;;;;;;;8.25;4.03;;;14.70;39.90;;;;;;4974775;28;20875;-53
2022/09/13 04:42:36;;;;;;;9.75;4.15;;;14.70;42.90;;;;;;4977124;28;20381;-54
2022/09/13 04:45:02;;;;;;;12.80;4.80;;;14.80;41.60;;;;;;4976244;28;20499;-54
2022/09/13 04:47:27;;;;;;;12.20;4.25;;;14.80;39.00;;;;;;4975791;28;20427;-53
2022/09/13 04:49:53;;;;;;;10.03;4.80;;;14.90;50.10;;;;;;4975782;28;20495;-54
2022/09/13 04:52:19;;;;;;;9.25;3.72;;;15.00;14.10;;;;;;4974953;28;20821;-54
2022/09/13 04:54:46;;;;;;;9.15;4.05;;;15.00;7.20;;;;;;4971731;28;20456;-54
2022/09/13 04:57:13;;;;;;;11.07;4.38;;;15.10;8.10;;;;;;4979230;28;20490;-53
2022/09/13 04:59:39;;;;;;;10.05;4.40;;;15.20;1.00;;;;;;4980355;28;21056;-55
2022/09/13 05:02:05;;;;;;;11.65;5.10;;;15.40;1.00;;;;;;4986892;28;20493;-53
2022/09/13 05:04:30;;;;;;;11.87;5.00;;;15.40;1.00;;;;;;4990433;28;21012;-54
2022/09/13 05:06:57;;;;;;;13.10;5.55;;;15.30;1.00;;;;;;4991007;28;20395;-54
2022/09/13 05:09:23;;;;;;;9.45;4.55;;;15.40;1.00;;;;;;4990103;28;21126;-53
2022/09/13 05:11:49;;;;;;;10.00;5.30;;;15.40;1.00;;;;;;4990776;28;20465;-54
2022/09/13 05:14:14;;;;;;;11.52;4.20;;;15.40;1.00;;;;;;4990188;28;20465;-53
2022/09/13 05:16:40;;;;;;;9.20;3.97;;;15.40;1.00;;;;;;4980546;28;20446;-54
2022/09/13 05:19:05;;;;;;;9.93;4.40;;;15.40;1.00;;;;;;4978461;28;20858;-54
2022/09/13 05:21:31;;;;;;;9.23;4.93;;;15.30;1.00;;;;;;4979819;28;20405;-54
2022/09/13 05:23:57;;;;;;;10.75;4.60;;;15.30;1.00;;;;;;4980905;28;20399;-54
2022/09/13 05:26:28;;;;;;;10.43;4.32;;;15.40;1.00;;;;;;4981169;28;20398;-53
2022/09/13 05:28:53;;;;;;;8.80;4.43;;;15.40;1.00;;;;;;4972484;28;21137;-54
2022/09/13 05:31:23;;;;;;;9.10;4.47;;;15.40;1.00;;;;;;4979822;28;20398;-53
2022/09/13 05:33:54;;;;;;;11.50;4.90;;;15.40;1.00;;;;;;4980488;28;20894;-54
2022/09/13 05:36:20;;;;;;;11.20;4.85;;;15.50;1.00;;;;;;4961007;28;20400;-54
2022/09/13 05:38:46;;;;;;;9.30;4.60;;;15.50;1.00;;;;;;4987924;28;20394;-54
2022/09/13 05:41:11;;;;;;;9.73;4.53;;;15.50;1.00;;;;;;4990269;28;20759;-54
2022/09/13 05:43:37;;;;;;;12.90;4.23;;;15.50;1.00;;;;;;4977405;28;20505;-54
2022/09/13 05:46:10;;;;;;;10.30;4.50;;;15.70;1.00;;;;;;4990343;28;20996;-54
2022/09/13 05:48:36;;;;;;;10.75;4.43;;;15.80;1.00;;;;;;4989656;28;20636;-54
2022/09/13 05:51:07;;;;;;;10.07;4.50;;;15.80;1.00;;;;;;4990149;28;20381;-54
2022/09/13 05:53:33;;;;;;;10.48;4.10;;;15.80;1.00;;;;;;4989620;28;20395;-54
2022/09/13 05:55:59;;;;;;;8.83;4.50;;;15.80;1.00;;;;;;4990374;28;20445;-54
2022/09/13 05:58:25;;;;;;;8.73;4.30;;;15.90;1.00;;;;;;4989487;28;20812;-54
2022/09/13 06:00:55;;;;;;;10.88;4.50;;;16.10;1.00;;;;;;4990105;28;20493;-54
2022/09/13 06:03:22;;;;;;;12.38;4.57;;;16.30;1.00;;;;;;4988936;28;20406;-54
2022/09/13 06:05:48;;;;;;;10.10;4.50;;;16.50;1.00;;;;;;4995800;28;20401;-54
2022/09/13 06:08:13;;;;;;;10.93;4.45;;;16.80;1.00;;;;;;5002414;28;20949;-53
2022/09/13 06:10:39;;;;;;;10.80;4.73;;;17.20;99.90;;;;;;4994936;28;20477;-53
2022/09/13 06:13:05;;;;;;;10.60;4.87;;;17.40;99.90;;;;;;4990413;28;20728;-54
2022/09/13 06:15:30;;;;;;;10.80;4.63;;;17.70;99.90;;;;;;5008942;28;20397;-55
2022/09/13 06:17:56;;;;;;;12.27;4.40;;;17.90;1.00;;;;;;5009723;28;20393;-54
2022/09/13 06:20:21;;;;;;;12.93;5.17;;;18.00;99.90;;;;;;5008689;28;20459;-54
2022/09/13 06:22:48;;;;;;;9.97;5.10;;;18.20;1.00;;;;;;5000668;28;20382;-54
2022/09/13 06:25:14;;;;;;;10.15;4.60;;;18.30;1.00;;;;;;4989577;28;20453;-54
2022/09/13 06:27:39;;;;;;;10.98;4.40;;;18.30;1.00;;;;;;4990312;28;20759;-54
2022/09/13 06:30:07;;;;;;;11.68;5.20;;;18.20;99.90;;;;;;4990234;28;20402;-54
2022/09/13 06:32:36;;;;;;;11.90;5.17;;;18.20;99.90;;;;;;4989479;28;20485;-54
2022/09/13 06:35:01;;;;;;;11.18;4.55;;;18.20;99.90;;;;;;4990097;28;20397;-54
2022/09/13 06:37:27;;;;;;;10.65;4.78;;;18.20;5.60;;;;;;4989939;28;20394;-54
2022/09/13 06:39:53;;;;;;;10.43;4.28;;;18.20;1.00;;;;;;4999458;28;20413;-54
2022/09/13 06:42:19;;;;;;;8.90;4.00;;;18.00;99.90;;;;;;5009215;28;20786;-54
2022/09/13 06:44:44;;;;;;;9.98;4.18;;;18.10;99.90;;;;;;5009664;28;20746;-54
2022/09/13 06:47:11;;;;;;;12.23;4.27;;;18.90;99.90;;;;;;5009450;28;20522;-54
2022/09/13 06:49:38;;;;;;;8.03;3.90;;;20.00;99.90;;;;;;5009176;28;20377;-54
2022/09/13 06:52:04;;;;;;;9.40;4.30;;;20.60;1.00;;;;;;5009390;28;20492;-55
2022/09/13 06:54:29;;;;;;;10.60;3.80;;;21.10;99.90;;;;;;5008877;28;20941;-54
2022/09/13 06:56:55;;;;;;;10.65;3.95;;;21.80;99.90;;;;;;5009661;28;20388;-55
2022/09/13 06:59:27;;;;;;;11.07;4.00;;;22.70;1.00;;;;;;5009348;28;20384;-55
2022/09/13 07:01:52;;;;;;;12.05;4.10;;;23.40;1.00;;;;;;5009863;28;20428;-55
2022/09/13 07:04:18;;;;;;;7.50;3.50;;;24.00;1.00;;;;;;5008938;28;20381;-54
2022/09/13 07:06:46;;;;;;;12.10;3.80;;;24.10;1.00;;;;;;5009368;28;20389;-55
2022/09/13 07:09:21;;;;;;;8.70;3.40;;;24.60;1.00;;;;;;5009318;28;20437;-55
2022/09/13 07:11:49;;;;;;;10.32;3.35;;;25.50;99.90;;;;;;5009372;28;20443;-55
2022/09/13 07:14:17;;;;;;;7.97;3.80;;;25.80;99.90;;;;;;5000539;28;20470;-54
2022/09/13 07:16:44;;;;;;;9.63;3.70;;;26.50;99.90;;;;;;4992344;28;20435;-55
2022/09/13 07:19:14;;;;;;;8.93;3.40;;;26.60;99.90;;;;;;4993587;28;20390;-54
2022/09/13 07:21:40;;;;;;;9.10;3.63;;;25.90;99.90;;;;;;4992944;28;20383;-54
2022/09/13 07:24:06;;;;;;;9.55;4.15;;;25.20;99.90;;;;;;4993033;28;20529;-55
2022/09/13 07:26:32;;;;;;;7.97;3.27;;;24.50;99.90;;;;;;4974751;28;20917;-54
2022/09/13 07:29:00;;;;;;;12.10;3.60;;;23.80;99.90;;;;;;4992978;28;20852;-54
2022/09/13 07:31:33;;;;;;;12.05;3.70;;;23.50;99.90;;;;;;4991977;28;20398;-54
2022/09/13 07:34:05;;;;;;;8.82;3.70;;;23.70;99.90;;;;;;4992871;28;20446;-54
2022/09/13 07:36:32;;;;;;;10.20;3.60;;;24.60;99.90;;;;;;4992020;28;20393;-54
2022/09/13 07:38:58;;;;;;;9.60;3.92;;;25.70;99.90;;;;;;4993028;28;20721;-56
2022/09/13 07:41:25;;;;;;;9.88;3.67;;;26.60;99.90;;;;;;4991801;28;20386;-55
2022/09/13 07:43:51;;;;;;;8.00;3.47;;;26.80;99.90;;;;;;4993246;28;20728;-55
2022/09/13 07:46:20;;;;;;;10.77;3.47;;;26.90;99.90;;;;;;4992070;28;20370;-54
2022/09/13 07:48:46;;;;;;;8.27;3.70;;;27.20;99.90;;;;;;4992478;28;20477;-55
2022/09/13 07:51:16;;;;;;;10.02;4.38;;;27.50;99.90;;;;;;4992879;28;20390;-55
2022/09/13 07:53:44;;;;;;;9.82;4.25;;;27.70;99.90;;;;;;4992756;28;20762;-55
2022/09/13 07:56:18;;;;;;;10.38;4.18;;;28.10;99.90;;;;;;4992486;28;20386;-54
2022/09/13 07:58:46;;;;;;;10.57;4.25;;;27.80;99.90;;;;;;4992513;28;20458;-54
2022/09/13 08:01:26;;;;;;;8.50;3.70;;;26.80;99.90;;;;;;4992189;28;20399;-54
2022/09/13 08:03:53;;;;;;;10.13;3.70;;;26.00;99.90;;;;;;4992509;28;20389;-55
2022/09/13 08:06:19;;;;;;;8.88;4.03;;;25.40;99.90;;;;;;4991818;28;20868;-54
2022/09/13 08:08:45;;;;;;;7.88;3.53;;;24.90;99.90;;;;;;4992272;28;20473;-54
2022/09/13 08:11:19;;;;;;;8.83;3.40;;;24.70;99.90;;;;;;4992085;28;20394;-54
2022/09/13 08:13:49;;;;;;;10.07;4.10;;;24.50;99.90;;;;;;4999364;28;20427;-55
2022/09/13 08:16:15;;;;;;;9.52;3.78;;;24.50;99.90;;;;;;5011378;28;20492;-54
2022/09/13 08:18:46;;;;;;;10.45;3.50;;;24.70;99.90;;;;;;5011054;28;20447;-54
2022/09/13 08:21:12;;;;;;;9.80;3.67;;;25.10;99.90;;;;;;5011609;28;20397;-54
2022/09/13 08:23:38;;;;;;;10.68;3.40;;;25.20;99.90;;;;;;4992835;28;21220;-55
2022/09/13 08:26:05;;;;;;;10.25;3.50;;;25.30;99.90;;;;;;5011793;28;20377;-55
2022/09/13 08:28:31;;;;;;;8.50;3.45;;;25.60;99.90;;;;;;5009937;28;20421;-54
2022/09/13 08:31:12;;;;;;;7.88;3.17;;;25.80;99.90;;;;;;5011494;28;20397;-54
2022/09/13 08:33:38;;;;;;;8.07;3.58;;;25.80;99.90;;;;;;5010945;28;20415;-54
2022/09/13 08:36:04;;;;;;;8.90;3.30;;;26.40;99.90;;;;;;5010899;28;20479;-54
2022/09/13 08:38:31;;;;;;;7.43;3.30;;;26.90;99.90;;;;;;5010799;28;20384;-54
2022/09/13 08:41:20;;;;;;;8.25;3.33;;;27.20;99.90;;;;;;4993841;28;20798;-55
2022/09/13 08:44:03;;;;;;;9.38;3.63;;;27.70;99.90;;;;;;4990577;28;20391;-55
2022/09/13 08:46:34;;;;;;;12.60;3.53;;;27.80;99.90;;;;;;5010888;28;20425;-55
2022/09/13 08:49:22;;;;;;;9.40;3.35;;;27.80;99.90;;;;;;5011056;28;20770;-55
2022/09/13 08:52:15;;;;;;;7.43;3.37;;;27.40;99.90;;;;;;5010395;28;20396;-55
2022/09/13 08:54:41;;;;;;;8.00;3.30;;;27.00;99.90;;;;;;5010352;28;20542;-54
2022/09/13 08:57:21;;;;;;;6.95;3.15;;;27.00;99.90;;;;;;5011306;28;20427;-54
2022/09/13 08:59:59;;;;;;;8.55;3.70;;;27.50;99.90;;;;;;5010978;28;20468;-54
2022/09/13 09:02:27;;;;;;;10.88;3.67;;;27.90;99.90;;;;;;5010201;28;20455;-55
2022/09/13 09:05:04;;;;;;;9.73;3.55;;;27.80;99.90;;;;;;5010710;28;20478;-55
2022/09/13 09:07:46;;;;;;;6.80;3.40;;;27.30;99.90;;;;;;5010400;28;20489;-55
2022/09/13 09:10:36;;;;;;;6.50;2.90;;;27.20;99.90;;;;;;5010603;28;20392;-55
2022/09/13 09:13:07;;;;;;;8.00;3.40;;;27.30;99.90;;;;;;5009284;28;20460;-55
2022/09/13 09:15:49;;;;;;;7.57;3.10;;;27.30;99.90;;;;;;4990119;28;20408;-55
2022/09/13 09:18:19;;;;;;;7.40;3.03;;;27.10;99.90;;;;;;4990881;28;20394;-54
2022/09/13 09:20:49;;;;;;;10.30;2.80;;;27.10;99.90;;;;;;4991157;28;20378;-55
2022/09/13 09:23:20;;;;;;;8.70;2.80;;;27.60;99.90;;;;;;4991272;28;20387;-55
2022/09/13 09:25:47;;;;;;;8.00;3.00;;;28.30;99.90;;;;;;4990621;28;20394;-55
2022/09/13 09:28:15;;;;;;;9.75;3.08;;;28.60;99.90;;;;;;4991167;28;20461;-55
2022/09/13 09:31:09;;;;;;;6.47;2.88;;;28.10;99.90;;;;;;4990919;28;20884;-55
2022/09/13 09:33:50;;;;;;;7.03;3.00;;;27.80;99.90;;;;;;4953758;28;20422;-55
2022/09/13 09:36:35;;;;;;;7.60;3.00;;;28.10;99.90;;;;;;4990540;28;20829;-54
2022/09/13 09:39:04;;;;;;;6.32;2.80;;;28.40;99.90;;;;;;4990526;28;20399;-55
2022/09/13 09:41:32;;;;;;;7.45;3.33;;;28.40;99.90;;;;;;4990163;28;20393;-55
2022/09/13 09:44:16;;;;;;;9.10;3.00;;;28.50;99.90;;;;;;4990434;28;20421;-55
2022/09/13 09:46:42;;;;;;;7.28;2.70;;;28.30;99.90;;;;;;4990846;28;20382;-55
2022/09/13 09:52:13;;;;;;;7.60;3.00;;;29.40;99.90;;;;;;4990823;28;20382;-55
2022/09/13 09:54:40;;;;;;;7.70;3.10;;;28.90;99.90;;;;;;4989952;28;20397;-54
2022/09/13 09:57:06;;;;;;;8.15;3.08;;;28.80;99.90;;;;;;4990509;28;20470;-55
2022/09/13 09:59:33;;;;;;;7.50;3.00;;;28.60;99.90;;;;;;4989326;28;20509;-55
2022/09/13 10:02:00;;;;;;;7.00;2.70;;;28.30;99.90;;;;;;4990187;28;20452;-55
2022/09/13 10:04:28;;;;;;;8.10;2.90;;;28.00;99.90;;;;;;4989770;28;20489;-55
2022/09/13 10:07:24;;;;;;;6.70;2.90;;;28.20;99.90;;;;;;4990593;28;20897;-55
2022/09/13 10:10:07;;;;;;;6.97;2.80;;;29.10;99.90;;;;;;4984791;28;20532;-55
2022/09/13 10:12:36;;;;;;;6.32;2.70;;;30.00;99.90;;;;;;4989856;28;20776;-54
2022/09/13 10:15:20;;;;;;;8.57;3.30;;;30.60;99.90;;;;;;5007569;28;20874;-55
2022/09/13 10:18:14;;;;;;;7.17;3.50;;;31.10;99.90;;;;;;5010446;28;20385;-55
2022/09/13 10:20:39;;;;;;;8.57;3.73;;;31.70;99.90;;;;;;5009495;28;20411;-55
2022/09/13 10:23:23;;;;;;;7.10;3.50;;;32.10;99.90;;;;;;5009860;28;20829;-55
2022/09/13 10:26:13;;;;;;;8.13;5.00;;;32.20;99.90;;;;;;5009709;28;20387;-55
2022/09/13 10:28:57;;;;;;;6.97;4.82;;;32.60;99.90;;;;;;5008836;28;20914;-55
2022/09/13 10:31:33;;;;;;;7.30;4.80;;;33.30;99.90;;;;;;5009296;28;20882;-55
2022/09/13 10:34:02;;;;;;;12.30;5.22;;;34.00;99.90;;;;;;5010008;28;20443;-55
2022/09/13 10:36:33;;;;;;;7.97;6.07;;;34.30;99.90;;;;;;5009204;28;20530;-55
2022/09/13 10:39:05;;;;;;;7.53;6.40;;;34.10;99.90;;;;;;5009570;28;20471;-55
2022/09/13 10:41:38;;;;;;;9.05;5.70;;;34.30;99.90;;;;;;5008588;28;20782;-55
2022/09/13 10:44:19;;;;;;;7.97;6.43;;;33.90;99.90;;;;;;4991913;28;20408;-55
2022/09/13 10:46:48;;;;;;;8.70;5.03;;;33.90;99.90;;;;;;5009749;28;20391;-55
2022/09/13 10:49:36;;;;;;;7.80;5.50;;;33.90;99.90;;;;;;5009642;28;20416;-56
2022/09/13 10:52:23;;;;;;;6.78;5.38;;;33.00;99.90;;;;;;5013054;28;20385;-55
2022/09/13 10:54:49;;;;;;;8.82;5.22;;;32.40;99.90;;;;;;5013581;28;20413;-55
2022/09/13 10:57:35;;;;;;;6.73;4.27;;;32.20;99.90;;;;;;5012943;28;20393;-55
2022/09/13 11:00:04;;;;;;;6.50;3.83;;;31.70;99.90;;;;;;5013243;28;20411;-55
2022/09/13 11:02:41;;;;;;;6.00;4.10;;;32.60;99.90;;;;;;5012149;28;20954;-55
2022/09/13 11:05:19;;;;;;;6.80;3.88;;;32.80;99.90;;;;;;5013103;28;20486;-55
2022/09/13 11:08:06;;;;;;;6.40;4.37;;;33.20;99.90;;;;;;5013653;28;20419;-55
2022/09/13 11:10:37;;;;;;;6.18;3.72;;;32.40;99.90;;;;;;5012298;28;20381;-55
2022/09/13 11:13:13;;;;;;;6.13;4.40;;;32.30;99.90;;;;;;5013420;28;20411;-56
2022/09/13 11:15:41;;;;;;;6.45;3.60;;;32.60;99.90;;;;;;4993377;28;20426;-55
2022/09/13 11:18:52;;;;;;;5.90;4.00;;;32.60;99.90;;;;;;4993355;28;20450;-55
2022/09/13 11:21:39;;;;;;;6.95;4.75;;;32.10;99.90;;;;;;4931988;29;20400;-54
2022/09/13 11:24:24;;;;;;;7.65;4.40;;;31.10;99.90;;;;;;4990351;28;20824;-55
2022/09/13 11:27:11;;;;;;;6.80;4.10;;;31.30;99.90;;;;;;4992711;28;20385;-55
2022/09/13 11:29:46;;;;;;;6.10;4.40;;;31.40;99.90;;;;;;4992434;28;20395;-55
2022/09/13 11:33:02;;;;;;;8.60;4.10;;;31.60;99.90;;;;;;4992911;28;20407;-55
2022/09/13 11:35:44;;;;;;;10.20;4.75;;;31.80;99.90;;;;;;4948806;28;20837;-55
2022/09/13 11:38:16;;;;;;;7.07;4.50;;;31.80;99.90;;;;;;4992865;28;20713;-55
2022/09/13 11:41:07;;;;;;;6.05;4.10;;;32.40;99.90;;;;;;4992362;28;20624;-55
2022/09/13 11:43:57;;;;;;;6.05;4.03;;;32.50;99.90;;;;;;4992605;28;20383;-55
2022/09/13 11:46:29;;;;;;;6.97;3.80;;;32.30;99.90;;;;;;4992623;28;20904;-55
2022/09/13 11:49:19;;;;;;;6.05;3.80;;;31.40;99.90;;;;;;4992763;28;20418;-55
2022/09/13 11:51:49;;;;;;;7.07;4.00;;;31.50;99.90;;;;;;4993028;28;20381;-55
2022/09/13 11:54:20;;;;;;;6.80;3.63;;;31.40;99.90;;;;;;4992804;28;20383;-55
2022/09/13 11:56:50;;;;;;;8.60;4.50;;;31.30;99.90;;;;;;4992832;28;20378;-55
2022/09/13 11:59:33;;;;;;;6.70;4.20;;;31.50;99.90;;;;;;4992244;28;20780;-55
2022/09/13 12:02:08;;;;;;;6.50;4.30;;;31.50;99.90;;;;;;4991896;28;20906;-55
2022/09/13 12:04:50;;;;;;;7.20;3.90;;;31.50;99.90;;;;;;4991868;28;20466;-55
2022/09/13 12:07:29;;;;;;;6.07;4.10;;;31.70;99.90;;;;;;4992257;28;20374;-55
2022/09/13 12:10:21;;;;;;;7.13;4.20;;;31.50;99.90;;;;;;4992629;28;20491;-55
2022/09/13 12:12:50;;;;;;;6.43;4.40;;;31.10;99.90;;;;;;4992321;28;20434;-55
2022/09/13 12:15:20;;;;;;;7.13;4.30;;;31.20;99.90;;;;;;5012008;28;20391;-55
2022/09/13 12:17:55;;;;;;;6.50;4.05;;;31.30;99.90;;;;;;5011799;28;20397;-55
2022/09/13 12:20:38;;;;;;;6.80;4.00;;;31.10;99.90;;;;;;5011572;28;20392;-55
2022/09/13 12:23:11;;;;;;;6.15;4.13;;;31.10;99.90;;;;;;5012150;28;20433;-55
2022/09/13 12:26:02;;;;;;;6.50;3.78;;;31.10;99.90;;;;;;5010943;28;20381;-55
2022/09/13 12:28:50;;;;;;;6.45;4.15;;;30.50;99.90;;;;;;5010541;28;20884;-54
2022/09/13 12:31:21;;;;;;;5.80;3.40;;;30.20;99.90;;;;;;4993197;28;20397;-55
2022/09/13 12:33:48;;;;;;;8.13;3.83;;;29.90;99.90;;;;;;5011493;28;20778;-54
2022/09/13 12:36:41;;;;;;;6.57;3.45;;;29.90;99.90;;;;;;5011297;28;20489;-55
2022/09/13 12:39:33;;;;;;;6.90;3.80;;;30.00;99.90;;;;;;5011404;28;20865;-55
2022/09/13 12:42:23;;;;;;;6.10;3.80;;;30.20;99.90;;;;;;5011404;28;20385;-55
2022/09/13 12:44:55;;;;;;;7.50;4.10;;;30.40;99.90;;;;;;4993549;28;20455;-55
2022/09/13 12:48:05;;;;;;;6.22;3.58;;;30.30;99.90;;;;;;5010979;28;20389;-54
2022/09/13 12:50:59;;;;;;;6.72;3.60;;;30.20;99.90;;;;;;4990454;28;20799;-55
2022/09/13 12:53:39;;;;;;;6.60;3.20;;;30.70;99.90;;;;;;5010430;28;20476;-55
2022/09/13 12:56:17;;;;;;;6.30;3.80;;;30.90;99.90;;;;;;5010508;28;20381;-55
2022/09/13 12:58:54;;;;;;;7.40;3.60;;;30.50;99.90;;;;;;5010431;28;20393;-55
2022/09/13 13:01:26;;;;;;;6.72;3.80;;;30.50;99.90;;;;;;5010827;28;20404;-54
2022/09/13 13:03:56;;;;;;;5.70;3.40;;;30.40;99.90;;;;;;5010932;28;20389;-54
2022/09/13 13:06:27;;;;;;;5.50;3.22;;;30.40;99.90;;;;;;5010550;28;20798;-54
2022/09/13 13:08:56;;;;;;;5.90;3.45;;;30.50;99.90;;;;;;5011433;28;20412;-55
2022/09/13 13:11:30;;;;;;;6.00;3.20;;;30.60;99.90;;;;;;5010281;28;20861;-54
2022/09/13 13:14:08;;;;;;;6.93;4.10;;;30.90;99.90;;;;;;5002194;28;20398;-55
2022/09/13 13:16:39;;;;;;;7.72;3.00;;;30.80;99.90;;;;;;4990294;28;20413;-55
2022/09/13 13:19:29;;;;;;;7.93;3.70;;;30.90;99.90;;;;;;4990898;28;20405;-55
2022/09/13 13:22:16;;;;;;;7.70;4.18;;;30.90;99.90;;;;;;4990858;28;20395;-55